Enter the Airport ICAO Code

Search by Airport or City

Current Weather

LPPT | Lisbon Portela Airport

Lisbon, Portugal

Last Update 7 Minutes Ago

Clear Sky

Temperature of 26 ºC

Moderate Winds from NorthEast

Temperature

26 ºC

Dew Point Temperature

06 ºC

Relative Humidity

28.01 %

Wind Direction

NorthEast (040º, Without Significant Variations)

Wind Velocity

28 km/h (15 kt)

Gusts

None

Visibility

No Significant Reductions

Sea Level Pressure

1018 hPa (Hectopascals)

Layers of Clouds

None

METAR LPPT 211330Z 04015KT CAVOK 26/06 Q1018

Weather Forecast

LPPT | Lisbon Portela Airport

Lisbon, Portugal

Forecast valid for the next 28 Hours

From now on it is expected:

Clear Sky

Moderate Winds from NorthEast

Maximum Temperature

No Data

Minimum Temperature

No Data

TAF LPPT 211100Z 2112/2218 04012KT CAVOK PROB40 2116/2124 35010KT